createdAt,value
2023-03-20T00:02:22.139Z,100.00
2023-03-20T00:04:49.614Z,100.00
2023-03-20T00:07:17.042Z,100.00
2023-03-20T00:09:44.364Z,100.00
2023-03-20T00:12:17.383Z,100.00
2023-03-20T00:14:44.889Z,100.00
2023-03-20T00:17:18.344Z,100.00
2023-03-20T00:19:46.890Z,100.00
2023-03-20T00:22:14.196Z,100.00
2023-03-20T00:24:41.561Z,100.00
2023-03-20T00:27:16.577Z,100.00
2023-03-20T00:29:44.299Z,100.00
2023-03-20T00:32:13.188Z,100.00
2023-03-20T00:34:41.055Z,100.00
2023-03-20T00:37:11.663Z,100.00
2023-03-20T00:39:40.012Z,100.00
2023-03-20T00:42:13.616Z,100.00
2023-03-20T00:44:53.988Z,100.00
2023-03-20T00:47:25.607Z,100.00
2023-03-20T00:49:55.905Z,100.00
2023-03-20T00:52:24.168Z,100.00
2023-03-20T00:54:52.377Z,100.00
2023-03-20T00:57:28.497Z,100.00
2023-03-20T00:59:59.925Z,100.00
2023-03-20T01:02:29.916Z,100.00
2023-03-20T01:04:58.186Z,100.00
2023-03-20T01:07:26.664Z,100.00
2023-03-20T01:09:54.042Z,100.00
2023-03-20T01:12:21.381Z,99.43
2023-03-20T01:14:55.158Z,99.07
2023-03-20T01:17:24.072Z,98.78
2023-03-20T01:19:52.150Z,98.67
2023-03-20T01:22:19.684Z,98.57
2023-03-20T01:24:47.437Z,98.03
2023-03-20T01:27:33.070Z,98.36
2023-03-20T01:30:00.783Z,98.60
2023-03-20T01:32:28.108Z,98.23
2023-03-20T01:34:55.471Z,96.84
2023-03-20T01:37:26.696Z,97.97
2023-03-20T01:39:57.224Z,99.10
2023-03-20T01:42:25.270Z,99.20
2023-03-20T01:44:53.019Z,99.37
2023-03-20T01:47:24.283Z,99.55
2023-03-20T01:50:13.596Z,99.21
2023-03-20T01:52:41.169Z,99.12
2023-03-20T01:55:08.788Z,98.85
2023-03-20T01:57:37.677Z,99.62
2023-03-20T02:00:15.624Z,100.00
2023-03-20T02:02:46.440Z,100.00
2023-03-20T02:05:23.204Z,100.00
2023-03-20T02:08:11.994Z,100.00
2023-03-20T02:10:40.422Z,100.00
2023-03-20T02:13:20.399Z,100.00
2023-03-20T02:16:08.264Z,100.00
2023-03-20T02:18:51.729Z,100.00
2023-03-20T02:21:25.917Z,100.00
2023-03-20T02:24:19.254Z,100.00
2023-03-20T02:27:17.143Z,100.00
2023-03-20T02:30:32.948Z,100.00
2023-03-20T02:33:15.778Z,100.00
2023-03-20T02:36:23.729Z,100.00
2023-03-20T02:39:16.273Z,100.00
2023-03-20T02:41:55.822Z,100.00
2023-03-20T02:44:28.118Z,100.00
2023-03-20T02:47:08.455Z,100.00
2023-03-20T02:49:46.971Z,100.00
2023-03-20T02:52:25.288Z,100.00
2023-03-20T02:55:10.879Z,100.00
2023-03-20T02:57:56.800Z,100.00
2023-03-20T03:00:35.634Z,100.00
2023-03-20T03:03:22.793Z,100.00
2023-03-20T03:05:56.350Z,100.00
2023-03-20T03:08:28.767Z,100.00
2023-03-20T03:11:04.186Z,99.05
2023-03-20T03:13:33.836Z,98.05
2023-03-20T03:16:09.911Z,97.81
2023-03-20T03:18:39.627Z,97.27
2023-03-20T03:21:09.204Z,97.36
2023-03-20T03:23:49.566Z,97.81
2023-03-20T03:26:25.566Z,98.24
2023-03-20T03:29:01.843Z,98.38
2023-03-20T03:31:31.869Z,98.35
2023-03-20T03:34:01.411Z,97.42
2023-03-20T03:36:28.687Z,97.87
2023-03-20T03:39:03.279Z,98.21
2023-03-20T03:41:30.542Z,97.34
2023-03-20T03:44:16.272Z,97.33
2023-03-20T03:46:53.745Z,96.71
2023-03-20T03:49:29.392Z,95.86
2023-03-20T03:52:01.648Z,95.36
2023-03-20T03:54:40.594Z,96.24
2023-03-20T03:57:38.197Z,98.84
2023-03-20T04:00:11.788Z,97.66
2023-03-20T04:02:46.735Z,96.76
2023-03-20T04:05:16.752Z,97.07
2023-03-20T04:07:52.538Z,96.57
2023-03-20T04:10:19.909Z,97.41
2023-03-20T04:12:47.580Z,96.81
2023-03-20T04:15:16.674Z,98.08
2023-03-20T04:17:44.928Z,98.82
2023-03-20T04:20:14.702Z,99.24
2023-03-20T04:22:42.182Z,100.00
2023-03-20T04:25:23.535Z,100.00
2023-03-20T04:27:53.931Z,100.00
2023-03-20T04:30:33.644Z,100.00
2023-03-20T04:33:13.932Z,100.00
2023-03-20T04:35:52.402Z,100.00
2023-03-20T04:38:20.595Z,100.00
2023-03-20T04:40:52.412Z,100.00
2023-03-20T04:43:19.872Z,100.00
2023-03-20T04:45:47.605Z,100.00
2023-03-20T04:48:15.312Z,100.00
2023-03-20T04:50:42.766Z,100.00
2023-03-20T04:53:10.372Z,100.00
2023-03-20T04:55:37.929Z,100.00
2023-03-20T04:58:05.820Z,100.00
2023-03-20T05:00:33.695Z,100.00
2023-03-20T05:03:01.514Z,100.00
2023-03-20T05:05:29.799Z,100.00
2023-03-20T05:07:57.267Z,100.00
2023-03-20T05:10:32.285Z,100.00
2023-03-20T05:13:06.427Z,100.00
2023-03-20T05:15:56.845Z,100.00
2023-03-20T05:18:37.493Z,100.00
2023-03-20T05:21:16.211Z,100.00
2023-03-20T05:24:06.681Z,100.00
2023-03-20T05:26:46.543Z,100.00
2023-03-20T05:29:26.120Z,100.00
2023-03-20T05:32:12.885Z,100.00
2023-03-20T05:34:56.110Z,100.00
2023-03-20T05:37:32.900Z,100.00
2023-03-20T05:40:08.242Z,100.00
2023-03-20T05:42:52.984Z,100.00
2023-03-20T05:45:38.950Z,100.00
2023-03-20T05:48:29.103Z,100.00
2023-03-20T05:51:11.477Z,100.00
2023-03-20T05:53:59.162Z,100.00
2023-03-20T05:56:59.311Z,100.00
2023-03-20T05:59:49.482Z,100.00
2023-03-20T06:02:51.869Z,100.00
2023-03-20T06:05:38.317Z,100.00
2023-03-20T06:08:06.107Z,100.00
2023-03-20T06:10:33.764Z,100.00
2023-03-20T06:13:01.421Z,100.00
2023-03-20T06:15:30.390Z,100.00
2023-03-20T06:18:05.900Z,100.00
2023-03-20T06:20:33.764Z,100.00
2023-03-20T06:23:03.782Z,100.00
2023-03-20T06:25:31.753Z,100.00
2023-03-20T06:27:59.189Z,100.00
2023-03-20T06:30:27.053Z,99.70
2023-03-20T06:32:54.980Z,99.58
2023-03-20T06:35:25.568Z,98.87
2023-03-20T06:37:52.964Z,98.34
2023-03-20T06:40:25.569Z,97.56
2023-03-20T06:42:53.800Z,93.15
2023-03-20T06:45:22.869Z,87.07
2023-03-20T06:47:58.869Z,84.86
2023-03-20T06:50:27.226Z,82.99
2023-03-20T06:52:54.982Z,82.29
2023-03-20T06:55:40.892Z,79.40
2023-03-20T06:58:08.257Z,74.41
2023-03-20T07:00:37.715Z,73.43
2023-03-20T07:03:06.787Z,72.21
2023-03-20T07:05:35.577Z,73.73
2023-03-20T07:08:07.813Z,75.51
2023-03-20T07:10:36.184Z,79.83
2023-03-20T07:13:04.493Z,83.74
2023-03-20T07:15:32.516Z,85.63
2023-03-20T07:17:59.958Z,86.17
2023-03-20T07:20:28.491Z,87.48
2023-03-20T07:22:55.981Z,87.18
2023-03-20T07:25:41.408Z,88.75
2023-03-20T07:28:11.881Z,89.74
2023-03-20T07:30:42.705Z,89.60
2023-03-20T07:33:11.166Z,91.12
2023-03-20T07:35:39.871Z,90.60
2023-03-20T07:38:08.158Z,89.97
2023-03-20T07:40:43.484Z,89.69
2023-03-20T07:43:16.274Z,88.14
2023-03-20T07:45:58.589Z,85.37
2023-03-20T07:48:25.936Z,75.91
2023-03-20T07:50:53.817Z,69.17
2023-03-20T07:53:21.553Z,66.33
2023-03-20T07:55:49.423Z,66.33
2023-03-20T07:58:16.834Z,61.63
2023-03-20T08:00:44.340Z,61.99
2023-03-20T08:03:12.006Z,61.21
2023-03-20T08:05:39.422Z,59.12
2023-03-20T08:08:07.178Z,56.07
2023-03-20T08:10:34.616Z,55.49
2023-03-20T08:13:02.076Z,52.17
2023-03-20T08:15:29.385Z,52.90
2023-03-20T08:17:58.923Z,51.64
2023-03-20T08:20:26.799Z,53.22
2023-03-20T08:22:54.321Z,52.30
2023-03-20T08:25:22.345Z,53.63
2023-03-20T08:27:49.911Z,50.94
2023-03-20T08:30:17.279Z,47.62
2023-03-20T08:32:44.605Z,50.67
2023-03-20T08:35:29.825Z,51.74
2023-03-20T08:38:00.767Z,47.66
2023-03-20T08:40:29.152Z,47.80
2023-03-20T08:42:57.301Z,48.08
2023-03-20T08:45:26.218Z,46.81
2023-03-20T08:47:53.553Z,45.66
2023-03-20T08:50:20.938Z,44.60
2023-03-20T08:52:48.321Z,44.67
2023-03-20T08:55:16.824Z,44.97
2023-03-20T08:57:44.267Z,43.54
2023-03-20T09:00:14.441Z,44.19
2023-03-20T09:02:43.233Z,43.47
2023-03-20T09:05:11.202Z,42.45
2023-03-20T09:07:38.515Z,42.40
2023-03-20T09:10:06.473Z,41.72
2023-03-20T09:12:33.933Z,41.40
2023-03-20T09:15:01.566Z,38.13
2023-03-20T09:17:29.047Z,41.63
2023-03-20T09:19:56.454Z,41.20
2023-03-20T09:22:24.047Z,40.79
2023-03-20T09:24:51.336Z,41.06
2023-03-20T09:27:18.649Z,40.76
2023-03-20T09:29:45.970Z,40.30
2023-03-20T09:32:15.321Z,39.87
2023-03-20T09:34:42.892Z,39.38
2023-03-20T09:37:10.794Z,39.59
2023-03-20T09:39:38.522Z,39.42
2023-03-20T09:42:47.285Z,40.23
2023-03-20T09:45:27.193Z,39.38
2023-03-20T09:48:06.330Z,37.21
2023-03-20T09:50:58.202Z,38.43
2023-03-20T09:53:33.594Z,37.97
2023-03-20T09:56:01.627Z,35.88
2023-03-20T09:58:38.780Z,37.46
2023-03-20T10:01:08.243Z,37.74
2023-03-20T10:03:44.805Z,39.52
2023-03-20T10:06:14.693Z,38.01
2023-03-20T10:08:43.086Z,38.62
2023-03-20T10:11:10.536Z,37.40
2023-03-20T10:13:37.795Z,38.99
2023-03-20T10:16:05.071Z,41.25
2023-03-20T10:18:37.837Z,40.42
2023-03-20T10:21:13.611Z,39.32
2023-03-20T10:24:04.660Z,37.94
2023-03-20T10:26:36.595Z,38.89
2023-03-20T10:30:00.589Z,38.26
2023-03-20T10:32:27.889Z,37.90
2023-03-20T10:35:10.398Z,37.81
2023-03-20T10:37:49.127Z,38.29
2023-03-20T10:40:32.096Z,35.69
2023-03-20T10:43:04.114Z,38.93
2023-03-20T10:45:57.734Z,38.09
2023-03-20T10:48:39.085Z,38.98
2023-03-20T10:51:14.736Z,39.09
2023-03-20T10:54:00.008Z,37.70
2023-03-20T10:56:40.794Z,37.86
2023-03-20T10:59:29.609Z,38.52
2023-03-20T11:01:56.981Z,39.59
2023-03-20T11:04:24.562Z,40.83
2023-03-20T11:07:12.127Z,39.05
2023-03-20T11:09:39.500Z,38.67
2023-03-20T11:12:18.005Z,37.65
2023-03-20T11:14:45.528Z,38.13
2023-03-20T11:17:13.026Z,40.10
2023-03-20T11:19:42.090Z,40.04
2023-03-20T11:22:15.126Z,39.38
2023-03-20T11:24:45.947Z,39.88
2023-03-20T11:27:18.034Z,40.30
2023-03-20T11:29:51.155Z,40.84
2023-03-20T11:32:31.404Z,40.49
2023-03-20T11:35:18.324Z,40.13
2023-03-20T11:37:49.036Z,41.35
2023-03-20T11:40:23.355Z,42.03
2023-03-20T11:43:09.858Z,41.82
2023-03-20T11:45:39.865Z,40.20
2023-03-20T11:48:18.875Z,39.15
2023-03-20T11:51:06.770Z,40.68
2023-03-20T11:53:58.168Z,41.91
2023-03-20T11:56:28.832Z,42.39
2023-03-20T11:58:59.016Z,40.07
2023-03-20T12:01:28.510Z,39.14
2023-03-20T12:03:56.062Z,39.67
2023-03-20T12:06:27.185Z,39.04
2023-03-20T12:09:03.010Z,39.79
2023-03-20T12:11:46.538Z,38.63
2023-03-20T12:14:33.976Z,40.03
2023-03-20T12:17:33.014Z,41.13
2023-03-20T12:20:48.666Z,41.01
2023-03-20T12:23:48.737Z,38.73
2023-03-20T12:26:36.110Z,38.87
2023-03-20T12:29:55.213Z,40.37
2023-03-20T12:32:34.677Z,38.30
2023-03-20T12:35:21.489Z,38.95
2023-03-20T12:37:48.897Z,39.71
2023-03-20T12:40:19.050Z,39.36
2023-03-20T12:43:18.612Z,39.87
2023-03-20T12:45:57.137Z,40.57
2023-03-20T12:49:06.401Z,40.71
2023-03-20T12:51:56.372Z,40.72
2023-03-20T12:55:13.297Z,40.09
2023-03-20T12:57:52.547Z,38.47
2023-03-20T13:00:26.395Z,39.51
2023-03-20T13:03:31.237Z,39.01
2023-03-20T13:06:14.326Z,38.57
2023-03-20T13:09:18.748Z,40.76
2023-03-20T13:11:56.094Z,40.10
2023-03-20T13:14:49.388Z,41.85
2023-03-20T13:17:53.988Z,42.03
2023-03-20T13:20:30.710Z,42.19
2023-03-20T13:23:13.710Z,42.92
2023-03-20T13:26:02.389Z,44.41
2023-03-20T13:28:32.820Z,43.79
2023-03-20T13:31:29.307Z,44.86
2023-03-20T13:34:18.091Z,43.64
2023-03-20T13:36:52.538Z,44.29
2023-03-20T13:39:19.773Z,43.60
2023-03-20T13:41:49.263Z,42.65
2023-03-20T13:44:21.018Z,42.50
2023-03-20T13:47:01.698Z,41.88
2023-03-20T13:49:50.823Z,42.15
2023-03-20T13:52:32.137Z,42.11
2023-03-20T13:55:24.041Z,40.84
2023-03-20T13:57:57.389Z,42.77
2023-03-20T14:00:38.002Z,42.93
2023-03-20T14:03:11.684Z,42.23
2023-03-20T14:05:43.591Z,43.02
2023-03-20T14:08:38.305Z,44.29
2023-03-20T14:11:20.942Z,45.91
2023-03-20T14:13:53.976Z,45.51
2023-03-20T14:16:22.060Z,47.14
2023-03-20T14:19:06.320Z,47.98
2023-03-20T14:21:35.709Z,46.07
2023-03-20T14:24:06.618Z,46.48
2023-03-20T14:26:44.665Z,48.34
2023-03-20T14:29:11.972Z,46.46
2023-03-20T14:31:42.249Z,47.85
2023-03-20T14:34:12.596Z,48.20
2023-03-20T14:36:59.263Z,46.92
2023-03-20T14:39:38.832Z,46.99
2023-03-20T14:42:15.750Z,46.98
2023-03-20T14:45:28.646Z,45.57
2023-03-20T14:48:05.280Z,45.67
2023-03-20T14:50:47.903Z,46.13
2023-03-20T14:53:26.381Z,45.44
2023-03-20T14:55:56.761Z,46.85
2023-03-20T14:58:49.767Z,46.87
2023-03-20T15:01:23.531Z,46.39
2023-03-20T15:03:52.705Z,46.80
2023-03-20T15:06:22.254Z,46.25
2023-03-20T15:08:55.445Z,46.52
2023-03-20T15:11:24.575Z,46.98
2023-03-20T15:13:54.011Z,46.47
2023-03-20T15:16:33.315Z,47.78
2023-03-20T15:19:01.285Z,48.19
2023-03-20T15:21:38.043Z,47.36
2023-03-20T15:24:05.686Z,48.09
2023-03-20T15:26:35.200Z,48.23
2023-03-20T15:29:11.154Z,49.10
2023-03-20T15:31:39.706Z,48.53
2023-03-20T15:34:11.637Z,48.94
2023-03-20T15:36:40.316Z,48.57
2023-03-20T15:39:15.663Z,49.06
2023-03-20T15:42:10.219Z,49.45
2023-03-20T15:44:40.968Z,50.30
2023-03-20T15:47:15.336Z,50.57
2023-03-20T15:49:43.303Z,51.51
2023-03-20T15:52:32.354Z,50.85
2023-03-20T15:55:28.120Z,51.37
2023-03-20T15:57:59.095Z,51.93
2023-03-20T16:00:34.505Z,52.76
2023-03-20T16:03:06.933Z,51.82
2023-03-20T16:05:35.743Z,52.19
2023-03-20T16:08:26.251Z,54.59
2023-03-20T16:11:01.636Z,52.96
2023-03-20T16:13:36.206Z,52.54
2023-03-20T16:16:07.662Z,54.10
2023-03-20T16:18:38.249Z,55.88
2023-03-20T16:21:15.908Z,55.28
2023-03-20T16:23:47.454Z,56.24
2023-03-20T16:26:17.893Z,56.05
2023-03-20T16:28:52.494Z,56.58
2023-03-20T16:31:26.786Z,57.45
2023-03-20T16:34:02.280Z,56.50
2023-03-20T16:36:32.260Z,57.65
2023-03-20T16:39:05.654Z,57.25
2023-03-20T16:41:35.966Z,56.67
2023-03-20T16:44:28.949Z,56.86
2023-03-20T16:47:17.218Z,57.05
2023-03-20T16:49:44.501Z,57.86
2023-03-20T16:52:14.727Z,58.25
2023-03-20T16:54:44.325Z,58.63
2023-03-20T16:57:17.649Z,59.97
2023-03-20T16:59:45.519Z,61.16
2023-03-20T17:02:23.826Z,60.89
2023-03-20T17:04:56.260Z,61.06
2023-03-20T17:07:28.283Z,60.70
2023-03-20T17:09:58.918Z,61.98
2023-03-20T17:12:31.243Z,63.22
2023-03-20T17:14:58.927Z,64.05
2023-03-20T17:17:27.017Z,64.14
2023-03-20T17:19:54.980Z,65.93
2023-03-20T17:22:25.292Z,65.48
2023-03-20T17:24:52.784Z,66.14
2023-03-20T17:27:21.078Z,66.35
2023-03-20T17:29:51.212Z,66.90
2023-03-20T17:32:23.854Z,67.60
2023-03-20T17:34:52.021Z,67.65
2023-03-20T17:37:29.828Z,68.09
2023-03-20T17:39:57.746Z,68.67
2023-03-20T17:42:31.093Z,70.02
2023-03-20T17:45:00.249Z,70.47
2023-03-20T17:47:29.352Z,71.06
2023-03-20T17:49:57.206Z,71.56
2023-03-20T17:52:27.014Z,74.67
2023-03-20T17:54:54.983Z,75.21
2023-03-20T17:57:36.258Z,77.51
2023-03-20T18:00:06.568Z,80.10
2023-03-20T18:02:34.927Z,82.10
2023-03-20T18:05:02.354Z,83.01
2023-03-20T18:07:29.814Z,84.87
2023-03-20T18:09:57.176Z,85.05
2023-03-20T18:12:24.544Z,85.27
2023-03-20T18:14:51.852Z,86.81
2023-03-20T18:17:19.204Z,87.51
2023-03-20T18:19:46.672Z,89.10
2023-03-20T18:22:14.004Z,89.41
2023-03-20T18:24:44.073Z,88.52
2023-03-20T18:27:12.641Z,89.16
2023-03-20T18:29:40.009Z,88.40
2023-03-20T18:32:07.457Z,89.31
2023-03-20T18:34:34.827Z,90.34
2023-03-20T18:37:04.574Z,90.43
2023-03-20T18:39:31.901Z,91.65
2023-03-20T18:41:59.252Z,92.20
2023-03-20T18:44:26.577Z,92.18
2023-03-20T18:46:53.905Z,91.69
2023-03-20T18:49:22.230Z,92.20
2023-03-20T18:51:49.754Z,92.56
2023-03-20T18:54:17.022Z,92.91
2023-03-20T18:56:44.663Z,94.34
2023-03-20T18:59:12.967Z,95.11
2023-03-20T19:01:40.796Z,95.21
2023-03-20T19:04:08.474Z,94.71
2023-03-20T19:06:36.066Z,94.78
2023-03-20T19:09:05.275Z,96.32
2023-03-20T19:11:32.586Z,95.83
2023-03-20T19:13:59.914Z,95.21
2023-03-20T19:16:30.793Z,96.13
2023-03-20T19:19:01.299Z,96.66
2023-03-20T19:21:30.300Z,96.33
2023-03-20T19:24:00.325Z,96.96
2023-03-20T19:26:29.833Z,97.51
2023-03-20T19:28:59.454Z,98.28
2023-03-20T19:31:27.848Z,98.02
2023-03-20T19:33:56.784Z,98.92
2023-03-20T19:36:35.708Z,99.03
2023-03-20T19:39:05.531Z,99.93
2023-03-20T19:41:33.168Z,99.98
2023-03-20T19:44:01.526Z,100.00
2023-03-20T19:46:39.673Z,100.00
2023-03-20T19:49:20.495Z,100.00
2023-03-20T19:51:49.333Z,100.00
2023-03-20T19:54:17.514Z,100.00
2023-03-20T19:56:44.972Z,100.00
2023-03-20T19:59:16.006Z,100.00
2023-03-20T20:01:45.489Z,99.90
2023-03-20T20:04:13.180Z,99.44
2023-03-20T20:06:41.905Z,100.00
2023-03-20T20:09:09.482Z,100.00
2023-03-20T20:11:36.844Z,100.00
2023-03-20T20:14:08.050Z,100.00
2023-03-20T20:16:39.623Z,100.00
2023-03-20T20:19:07.510Z,100.00
2023-03-20T20:24:23.715Z,97.79
2023-03-20T20:26:59.694Z,97.76
2023-03-20T20:29:34.670Z,97.77
2023-03-20T20:32:02.413Z,97.72
2023-03-20T20:40:07.939Z,97.32
2023-03-20T20:42:38.223Z,97.46
2023-03-20T20:45:10.070Z,98.54
2023-03-20T20:47:40.968Z,98.30
2023-03-20T20:50:09.381Z,98.59
2023-03-20T20:52:39.746Z,98.42
2023-03-20T20:55:22.231Z,98.94
2023-03-20T20:57:56.066Z,99.73
2023-03-20T21:00:37.182Z,100.00
2023-03-20T21:03:12.963Z,99.46
2023-03-20T21:05:42.948Z,98.68
2023-03-20T21:08:12.079Z,99.76
2023-03-20T21:10:40.096Z,99.56
2023-03-20T21:13:08.411Z,98.91
2023-03-20T21:15:36.264Z,98.99
2023-03-20T21:18:04.002Z,98.96
2023-03-20T21:20:49.852Z,100.00
2023-03-20T21:23:17.596Z,100.00
2023-03-20T21:25:47.805Z,100.00
2023-03-20T21:28:15.683Z,99.75
2023-03-20T21:31:09.150Z,100.00
2023-03-20T21:33:32.008Z,100.00
2023-03-20T21:35:59.958Z,100.00
2023-03-20T21:39:06.757Z,99.64
2023-03-20T21:41:15.365Z,99.60
2023-03-20T21:43:46.515Z,100.00
2023-03-20T21:46:47.994Z,100.00
2023-03-20T21:55:10.246Z,100.00
2023-03-20T22:01:00.773Z,100.00
2023-03-20T22:03:09.826Z,100.00
2023-03-20T22:06:47.806Z,99.91
2023-03-20T22:20:29.123Z,99.06
2023-03-20T22:28:49.637Z,99.08
2023-03-20T22:31:40.853Z,100.00
2023-03-20T22:39:54.438Z,100.00
2023-03-20T22:44:59.856Z,100.00
2023-03-20T22:47:28.217Z,100.00
2023-03-20T22:49:55.716Z,100.00
2023-03-20T22:52:34.717Z,100.00
2023-03-20T22:55:02.445Z,100.00
2023-03-20T22:57:41.128Z,100.00
2023-03-20T23:00:15.228Z,100.00
2023-03-20T23:02:42.840Z,100.00
2023-03-20T23:05:11.715Z,100.00
2023-03-20T23:07:39.839Z,100.00
2023-03-20T23:10:09.716Z,100.00
2023-03-20T23:12:38.276Z,100.00
2023-03-20T23:15:06.408Z,100.00
2023-03-20T23:17:33.847Z,100.00
2023-03-20T23:20:11.028Z,100.00
2023-03-20T23:22:39.401Z,100.00
2023-03-20T23:25:16.526Z,100.00
2023-03-20T23:27:51.346Z,100.00
2023-03-20T23:30:20.645Z,100.00
2023-03-20T23:32:48.225Z,100.00
2023-03-20T23:35:15.846Z,100.00
2023-03-20T23:37:43.213Z,100.00
2023-03-20T23:40:11.395Z,100.00
2023-03-20T23:42:38.789Z,100.00
2023-03-20T23:45:19.251Z,100.00
2023-03-20T23:47:48.240Z,100.00
2023-03-20T23:50:27.714Z,100.00
2023-03-20T23:53:09.455Z,100.00
2023-03-20T23:55:43.024Z,100.00
2023-03-20T23:58:11.741Z,100.00
